sensor_id;sensor_type;location;lat;lon;timestamp;P1;durP1;ratioP1;P2;durP2;ratioP2
42760;SDS011;31672;47.638;19.026;2023-03-02T00:04:30;20.30;;;9.30;;
42760;SDS011;31672;47.638;19.026;2023-03-02T00:09:46;37.00;;;16.83;;
42760;SDS011;31672;47.638;19.026;2023-03-02T00:14:49;26.63;;;13.40;;
42760;SDS011;31672;47.638;19.026;2023-03-02T00:19:52;31.03;;;13.57;;
42760;SDS011;31672;47.638;19.026;2023-03-02T00:24:56;28.13;;;14.97;;
42760;SDS011;31672;47.638;19.026;2023-03-02T00:29:59;34.70;;;16.80;;
42760;SDS011;31672;47.638;19.026;2023-03-02T00:35:03;27.80;;;14.53;;
42760;SDS011;31672;47.638;19.026;2023-03-02T00:40:07;23.27;;;11.97;;
42760;SDS011;31672;47.638;19.026;2023-03-02T00:45:11;23.67;;;11.47;;
42760;SDS011;31672;47.638;19.026;2023-03-02T00:50:14;16.30;;;8.07;;
42760;SDS011;31672;47.638;19.026;2023-03-02T00:55:17;16.87;;;10.17;;
42760;SDS011;31672;47.638;19.026;2023-03-02T01:00:21;18.43;;;9.23;;
42760;SDS011;31672;47.638;19.026;2023-03-02T01:05:25;18.77;;;10.20;;
42760;SDS011;31672;47.638;19.026;2023-03-02T01:10:30;18.73;;;9.57;;
42760;SDS011;31672;47.638;19.026;2023-03-02T01:15:34;11.67;;;6.53;;
42760;SDS011;31672;47.638;19.026;2023-03-02T01:20:38;17.80;;;8.43;;
42760;SDS011;31672;47.638;19.026;2023-03-02T01:25:41;13.23;;;7.53;;
42760;SDS011;31672;47.638;19.026;2023-03-02T01:30:43;17.40;;;9.37;;
42760;SDS011;31672;47.638;19.026;2023-03-02T01:35:48;16.27;;;8.43;;
42760;SDS011;31672;47.638;19.026;2023-03-02T01:40:51;14.37;;;6.67;;
42760;SDS011;31672;47.638;19.026;2023-03-02T01:45:55;16.30;;;7.70;;
42760;SDS011;31672;47.638;19.026;2023-03-02T01:51:03;14.33;;;7.50;;
42760;SDS011;31672;47.638;19.026;2023-03-02T01:56:08;13.83;;;7.20;;
42760;SDS011;31672;47.638;19.026;2023-03-02T02:01:11;13.07;;;8.00;;
42760;SDS011;31672;47.638;19.026;2023-03-02T02:06:21;12.27;;;7.10;;
42760;SDS011;31672;47.638;19.026;2023-03-02T02:11:26;13.43;;;8.63;;
42760;SDS011;31672;47.638;19.026;2023-03-02T02:16:30;13.77;;;7.00;;
42760;SDS011;31672;47.638;19.026;2023-03-02T02:21:36;16.33;;;7.70;;
42760;SDS011;31672;47.638;19.026;2023-03-02T02:26:46;13.23;;;6.77;;
42760;SDS011;31672;47.638;19.026;2023-03-02T02:31:58;14.10;;;7.53;;
42760;SDS011;31672;47.638;19.026;2023-03-02T02:37:14;12.77;;;6.87;;
42760;SDS011;31672;47.638;19.026;2023-03-02T02:42:25;12.47;;;6.40;;
42760;SDS011;31672;47.638;19.026;2023-03-02T02:47:32;13.33;;;6.17;;
42760;SDS011;31672;47.638;19.026;2023-03-02T02:52:36;12.67;;;7.17;;
42760;SDS011;31672;47.638;19.026;2023-03-02T02:57:42;13.97;;;7.10;;
42760;SDS011;31672;47.638;19.026;2023-03-02T03:02:45;17.90;;;8.37;;
42760;SDS011;31672;47.638;19.026;2023-03-02T03:08:09;16.77;;;8.57;;
42760;SDS011;31672;47.638;19.026;2023-03-02T03:13:47;18.20;;;9.97;;
42760;SDS011;31672;47.638;19.026;2023-03-02T03:24:25;19.17;;;10.00;;
42760;SDS011;31672;47.638;19.026;2023-03-02T03:29:31;19.33;;;9.73;;
42760;SDS011;31672;47.638;19.026;2023-03-02T03:34:35;16.57;;;8.30;;
42760;SDS011;31672;47.638;19.026;2023-03-02T03:39:42;20.67;;;9.70;;
42760;SDS011;31672;47.638;19.026;2023-03-02T03:44:46;16.67;;;9.10;;
42760;SDS011;31672;47.638;19.026;2023-03-02T03:49:49;15.10;;;8.90;;
42760;SDS011;31672;47.638;19.026;2023-03-02T03:54:52;20.90;;;9.87;;
42760;SDS011;31672;47.638;19.026;2023-03-02T03:59:55;14.13;;;7.23;;
42760;SDS011;31672;47.638;19.026;2023-03-02T04:04:58;14.77;;;7.80;;
42760;SDS011;31672;47.638;19.026;2023-03-02T04:10:07;17.30;;;8.07;;
42760;SDS011;31672;47.638;19.026;2023-03-02T04:15:13;20.57;;;8.17;;
42760;SDS011;31672;47.638;19.026;2023-03-02T04:20:18;16.67;;;9.00;;
42760;SDS011;31672;47.638;19.026;2023-03-02T04:25:25;15.13;;;8.47;;
42760;SDS011;31672;47.638;19.026;2023-03-02T04:30:30;15.93;;;8.27;;
42760;SDS011;31672;47.638;19.026;2023-03-02T04:35:34;15.40;;;7.37;;
42760;SDS011;31672;47.638;19.026;2023-03-02T04:40:37;13.47;;;7.30;;
42760;SDS011;31672;47.638;19.026;2023-03-02T04:45:40;11.27;;;6.07;;
42760;SDS011;31672;47.638;19.026;2023-03-02T04:50:43;12.03;;;6.43;;
42760;SDS011;31672;47.638;19.026;2023-03-02T04:55:46;11.87;;;6.03;;
42760;SDS011;31672;47.638;19.026;2023-03-02T05:00:49;14.90;;;8.50;;
42760;SDS011;31672;47.638;19.026;2023-03-02T05:05:52;13.83;;;7.87;;
42760;SDS011;31672;47.638;19.026;2023-03-02T05:10:55;14.83;;;6.40;;
42760;SDS011;31672;47.638;19.026;2023-03-02T05:15:59;13.83;;;6.93;;
42760;SDS011;31672;47.638;19.026;2023-03-02T05:21:04;13.40;;;7.10;;
42760;SDS011;31672;47.638;19.026;2023-03-02T05:26:07;12.77;;;6.67;;
42760;SDS011;31672;47.638;19.026;2023-03-02T05:31:17;13.27;;;6.17;;
42760;SDS011;31672;47.638;19.026;2023-03-02T05:36:24;11.13;;;6.00;;
42760;SDS011;31672;47.638;19.026;2023-03-02T05:41:27;11.80;;;5.70;;
42760;SDS011;31672;47.638;19.026;2023-03-02T05:46:31;13.50;;;6.57;;
42760;SDS011;31672;47.638;19.026;2023-03-02T05:51:34;16.47;;;7.43;;
42760;SDS011;31672;47.638;19.026;2023-03-02T05:56:37;22.40;;;8.90;;
42760;SDS011;31672;47.638;19.026;2023-03-02T06:01:41;28.73;;;14.67;;
42760;SDS011;31672;47.638;19.026;2023-03-02T06:06:44;16.73;;;7.83;;
42760;SDS011;31672;47.638;19.026;2023-03-02T06:11:47;16.10;;;7.23;;
42760;SDS011;31672;47.638;19.026;2023-03-02T06:16:50;12.20;;;6.47;;
42760;SDS011;31672;47.638;19.026;2023-03-02T06:21:53;13.87;;;7.67;;
42760;SDS011;31672;47.638;19.026;2023-03-02T06:26:56;12.73;;;6.90;;
42760;SDS011;31672;47.638;19.026;2023-03-02T06:31:59;17.30;;;6.70;;
42760;SDS011;31672;47.638;19.026;2023-03-02T06:37:02;12.23;;;6.10;;
42760;SDS011;31672;47.638;19.026;2023-03-02T06:42:05;10.33;;;5.37;;
42760;SDS011;31672;47.638;19.026;2023-03-02T06:47:08;14.00;;;6.23;;
42760;SDS011;31672;47.638;19.026;2023-03-02T06:52:11;14.57;;;7.70;;
42760;SDS011;31672;47.638;19.026;2023-03-02T06:57:15;33.03;;;12.67;;
42760;SDS011;31672;47.638;19.026;2023-03-02T07:02:18;34.00;;;15.97;;
42760;SDS011;31672;47.638;19.026;2023-03-02T07:07:21;27.53;;;13.17;;
42760;SDS011;31672;47.638;19.026;2023-03-02T07:12:24;26.90;;;12.27;;
42760;SDS011;31672;47.638;19.026;2023-03-02T07:17:27;19.03;;;9.83;;
42760;SDS011;31672;47.638;19.026;2023-03-02T07:22:31;30.57;;;13.53;;
42760;SDS011;31672;47.638;19.026;2023-03-02T07:27:34;26.60;;;14.47;;
42760;SDS011;31672;47.638;19.026;2023-03-02T07:32:38;36.53;;;16.33;;
42760;SDS011;31672;47.638;19.026;2023-03-02T07:37:42;28.27;;;13.17;;
42760;SDS011;31672;47.638;19.026;2023-03-02T07:42:45;31.70;;;16.73;;
42760;SDS011;31672;47.638;19.026;2023-03-02T07:47:49;40.50;;;22.30;;
42760;SDS011;31672;47.638;19.026;2023-03-02T07:52:52;37.40;;;17.07;;
42760;SDS011;31672;47.638;19.026;2023-03-02T07:57:55;28.77;;;15.90;;
42760;SDS011;31672;47.638;19.026;2023-03-02T08:02:58;13.20;;;8.37;;
42760;SDS011;31672;47.638;19.026;2023-03-02T08:08:02;7.73;;;5.47;;
42760;SDS011;31672;47.638;19.026;2023-03-02T08:13:05;13.27;;;6.07;;
42760;SDS011;31672;47.638;19.026;2023-03-02T08:18:08;16.77;;;6.87;;
42760;SDS011;31672;47.638;19.026;2023-03-02T08:23:11;11.20;;;5.80;;
42760;SDS011;31672;47.638;19.026;2023-03-02T08:28:14;17.73;;;7.40;;
42760;SDS011;31672;47.638;19.026;2023-03-02T08:33:17;9.77;;;5.60;;
42760;SDS011;31672;47.638;19.026;2023-03-02T08:38:20;14.60;;;9.15;;
42760;SDS011;31672;47.638;19.026;2023-03-02T08:43:24;9.40;;;6.03;;
42760;SDS011;31672;47.638;19.026;2023-03-02T08:48:28;8.45;;;4.90;;
42760;SDS011;31672;47.638;19.026;2023-03-02T08:53:32;8.07;;;4.35;;
42760;SDS011;31672;47.638;19.026;2023-03-02T08:58:39;7.35;;;4.40;;
42760;SDS011;31672;47.638;19.026;2023-03-02T09:03:42;7.32;;;4.90;;
42760;SDS011;31672;47.638;19.026;2023-03-02T09:08:45;8.57;;;5.07;;
42760;SDS011;31672;47.638;19.026;2023-03-02T09:13:49;10.07;;;4.90;;
42760;SDS011;31672;47.638;19.026;2023-03-02T09:18:52;8.70;;;5.13;;
42760;SDS011;31672;47.638;19.026;2023-03-02T09:23:56;7.47;;;5.30;;
42760;SDS011;31672;47.638;19.026;2023-03-02T09:28:59;7.97;;;4.90;;
42760;SDS011;31672;47.638;19.026;2023-03-02T09:34:03;7.10;;;4.85;;
42760;SDS011;31672;47.638;19.026;2023-03-02T09:39:06;9.45;;;5.38;;
42760;SDS011;31672;47.638;19.026;2023-03-02T09:54:55;7.72;;;4.97;;
42760;SDS011;31672;47.638;19.026;2023-03-02T10:05:37;7.05;;;5.03;;
42760;SDS011;31672;47.638;19.026;2023-03-02T10:21:53;8.00;;;4.22;;
42760;SDS011;31672;47.638;19.026;2023-03-02T10:27:17;7.60;;;4.47;;
42760;SDS011;31672;47.638;19.026;2023-03-02T10:32:30;6.18;;;4.25;;
42760;SDS011;31672;47.638;19.026;2023-03-02T10:37:39;6.25;;;4.45;;
42760;SDS011;31672;47.638;19.026;2023-03-02T10:42:42;8.27;;;4.88;;
42760;SDS011;31672;47.638;19.026;2023-03-02T10:47:46;7.63;;;4.50;;
42760;SDS011;31672;47.638;19.026;2023-03-02T10:52:49;8.85;;;5.25;;
42760;SDS011;31672;47.638;19.026;2023-03-02T10:58:03;6.47;;;4.95;;
42760;SDS011;31672;47.638;19.026;2023-03-02T11:03:21;7.72;;;4.65;;
42760;SDS011;31672;47.638;19.026;2023-03-02T11:08:25;6.50;;;4.57;;
42760;SDS011;31672;47.638;19.026;2023-03-02T11:13:31;13.48;;;12.07;;
42760;SDS011;31672;47.638;19.026;2023-03-02T11:18:40;8.55;;;4.97;;
42760;SDS011;31672;47.638;19.026;2023-03-02T11:29:47;6.35;;;4.35;;
42760;SDS011;31672;47.638;19.026;2023-03-02T11:35:36;6.20;;;4.45;;
42760;SDS011;31672;47.638;19.026;2023-03-02T11:41:01;8.50;;;6.38;;
42760;SDS011;31672;47.638;19.026;2023-03-02T11:46:24;8.40;;;5.00;;
42760;SDS011;31672;47.638;19.026;2023-03-02T11:51:37;6.53;;;5.10;;
42760;SDS011;31672;47.638;19.026;2023-03-02T11:56:59;7.43;;;5.10;;
42760;SDS011;31672;47.638;19.026;2023-03-02T12:02:04;7.15;;;4.82;;
42760;SDS011;31672;47.638;19.026;2023-03-02T12:07:21;5.93;;;4.90;;
42760;SDS011;31672;47.638;19.026;2023-03-02T12:12:38;7.28;;;5.18;;
42760;SDS011;31672;47.638;19.026;2023-03-02T12:17:58;10.32;;;5.05;;
42760;SDS011;31672;47.638;19.026;2023-03-02T12:23:05;7.82;;;5.88;;
42760;SDS011;31672;47.638;19.026;2023-03-02T12:28:25;8.15;;;5.72;;
42760;SDS011;31672;47.638;19.026;2023-03-02T12:33:37;7.88;;;5.05;;
42760;SDS011;31672;47.638;19.026;2023-03-02T12:39:01;8.23;;;4.97;;
42760;SDS011;31672;47.638;19.026;2023-03-02T12:50:01;10.40;;;5.38;;
42760;SDS011;31672;47.638;19.026;2023-03-02T13:00:23;9.43;;;4.70;;
42760;SDS011;31672;47.638;19.026;2023-03-02T13:05:33;8.13;;;4.80;;
42760;SDS011;31672;47.638;19.026;2023-03-02T13:16:02;6.70;;;4.70;;
42760;SDS011;31672;47.638;19.026;2023-03-02T13:21:44;12.10;;;6.27;;
42760;SDS011;31672;47.638;19.026;2023-03-02T13:26:53;9.77;;;7.03;;
42760;SDS011;31672;47.638;19.026;2023-03-02T13:32:15;36.13;;;6.83;;
42760;SDS011;31672;47.638;19.026;2023-03-02T13:42:42;7.30;;;4.93;;
42760;SDS011;31672;47.638;19.026;2023-03-02T13:47:44;7.33;;;5.43;;
42760;SDS011;31672;47.638;19.026;2023-03-02T13:52:47;8.40;;;5.53;;
42760;SDS011;31672;47.638;19.026;2023-03-02T13:57:52;8.50;;;5.33;;
42760;SDS011;31672;47.638;19.026;2023-03-02T14:02:57;24.13;;;5.63;;
42760;SDS011;31672;47.638;19.026;2023-03-02T14:08:01;10.93;;;5.00;;
42760;SDS011;31672;47.638;19.026;2023-03-02T14:13:05;21.53;;;6.27;;
42760;SDS011;31672;47.638;19.026;2023-03-02T14:18:54;8.30;;;5.80;;
42760;SDS011;31672;47.638;19.026;2023-03-02T14:23:46;10.07;;;4.43;;
42760;SDS011;31672;47.638;19.026;2023-03-02T14:28:49;11.20;;;5.43;;
42760;SDS011;31672;47.638;19.026;2023-03-02T14:34:09;6.50;;;4.07;;
42760;SDS011;31672;47.638;19.026;2023-03-02T14:44:40;8.20;;;4.43;;
42760;SDS011;31672;47.638;19.026;2023-03-02T14:49:45;11.07;;;6.90;;
42760;SDS011;31672;47.638;19.026;2023-03-02T14:54:51;8.50;;;5.33;;
42760;SDS011;31672;47.638;19.026;2023-03-02T14:59:59;8.47;;;5.80;;
42760;SDS011;31672;47.638;19.026;2023-03-02T15:05:04;6.70;;;4.53;;
42760;SDS011;31672;47.638;19.026;2023-03-02T15:10:10;9.23;;;4.40;;
42760;SDS011;31672;47.638;19.026;2023-03-02T15:15:21;7.87;;;4.40;;
42760;SDS011;31672;47.638;19.026;2023-03-02T15:20:25;8.60;;;6.07;;
42760;SDS011;31672;47.638;19.026;2023-03-02T15:25:30;47.50;;;37.63;;
42760;SDS011;31672;47.638;19.026;2023-03-02T15:30:33;16.97;;;10.60;;
42760;SDS011;31672;47.638;19.026;2023-03-02T15:35:36;12.00;;;6.00;;
42760;SDS011;31672;47.638;19.026;2023-03-02T15:40:41;13.60;;;6.80;;
42760;SDS011;31672;47.638;19.026;2023-03-02T15:45:44;12.90;;;7.70;;
42760;SDS011;31672;47.638;19.026;2023-03-02T15:50:57;11.10;;;6.80;;
42760;SDS011;31672;47.638;19.026;2023-03-02T15:56:06;10.10;;;3.83;;
42760;SDS011;31672;47.638;19.026;2023-03-02T16:06:17;10.00;;;6.40;;
42760;SDS011;31672;47.638;19.026;2023-03-02T16:11:20;9.27;;;4.57;;
42760;SDS011;31672;47.638;19.026;2023-03-02T16:16:24;13.17;;;8.60;;
42760;SDS011;31672;47.638;19.026;2023-03-02T16:21:28;26.17;;;15.27;;
42760;SDS011;31672;47.638;19.026;2023-03-02T16:26:31;24.03;;;14.80;;
42760;SDS011;31672;47.638;19.026;2023-03-02T16:31:37;31.90;;;14.50;;
42760;SDS011;31672;47.638;19.026;2023-03-02T16:36:40;25.63;;;14.47;;
42760;SDS011;31672;47.638;19.026;2023-03-02T16:41:44;32.33;;;16.30;;
42760;SDS011;31672;47.638;19.026;2023-03-02T16:46:47;24.33;;;12.97;;
42760;SDS011;31672;47.638;19.026;2023-03-02T16:51:50;29.73;;;15.37;;
42760;SDS011;31672;47.638;19.026;2023-03-02T16:56:59;42.67;;;24.83;;
42760;SDS011;31672;47.638;19.026;2023-03-02T17:02:02;64.57;;;33.37;;
42760;SDS011;31672;47.638;19.026;2023-03-02T17:07:05;57.73;;;34.07;;
42760;SDS011;31672;47.638;19.026;2023-03-02T17:12:09;133.80;;;71.50;;
42760;SDS011;31672;47.638;19.026;2023-03-02T17:17:13;200.30;;;103.50;;
42760;SDS011;31672;47.638;19.026;2023-03-02T17:22:16;162.20;;;87.67;;
42760;SDS011;31672;47.638;19.026;2023-03-02T17:27:19;96.37;;;46.20;;
42760;SDS011;31672;47.638;19.026;2023-03-02T17:32:27;87.67;;;41.07;;
42760;SDS011;31672;47.638;19.026;2023-03-02T17:37:30;62.53;;;32.93;;
42760;SDS011;31672;47.638;19.026;2023-03-02T17:42:37;56.70;;;28.47;;
42760;SDS011;31672;47.638;19.026;2023-03-02T17:47:40;46.23;;;26.43;;
42760;SDS011;31672;47.638;19.026;2023-03-02T17:52:43;45.13;;;22.50;;
42760;SDS011;31672;47.638;19.026;2023-03-02T17:57:46;47.67;;;20.23;;
42760;SDS011;31672;47.638;19.026;2023-03-02T18:02:49;39.17;;;17.63;;
42760;SDS011;31672;47.638;19.026;2023-03-02T18:07:53;38.43;;;16.17;;
42760;SDS011;31672;47.638;19.026;2023-03-02T18:12:57;35.23;;;14.63;;
42760;SDS011;31672;47.638;19.026;2023-03-02T18:18:00;42.80;;;19.20;;
42760;SDS011;31672;47.638;19.026;2023-03-02T18:23:03;36.07;;;16.53;;
42760;SDS011;31672;47.638;19.026;2023-03-02T18:28:06;21.00;;;11.07;;
42760;SDS011;31672;47.638;19.026;2023-03-02T18:33:09;22.83;;;12.20;;
42760;SDS011;31672;47.638;19.026;2023-03-02T18:38:12;31.80;;;15.60;;
42760;SDS011;31672;47.638;19.026;2023-03-02T18:43:15;26.23;;;13.73;;
42760;SDS011;31672;47.638;19.026;2023-03-02T18:48:18;25.67;;;13.10;;
42760;SDS011;31672;47.638;19.026;2023-03-02T18:53:21;24.23;;;12.93;;
42760;SDS011;31672;47.638;19.026;2023-03-02T18:58:25;21.53;;;12.50;;
42760;SDS011;31672;47.638;19.026;2023-03-02T19:03:29;35.33;;;16.87;;
42760;SDS011;31672;47.638;19.026;2023-03-02T19:08:32;35.53;;;16.40;;
42760;SDS011;31672;47.638;19.026;2023-03-02T19:13:36;36.70;;;18.63;;
42760;SDS011;31672;47.638;19.026;2023-03-02T19:18:39;61.57;;;28.43;;
42760;SDS011;31672;47.638;19.026;2023-03-02T19:23:43;51.60;;;23.63;;
42760;SDS011;31672;47.638;19.026;2023-03-02T19:28:47;35.77;;;18.43;;
42760;SDS011;31672;47.638;19.026;2023-03-02T19:33:50;30.87;;;17.73;;
42760;SDS011;31672;47.638;19.026;2023-03-02T19:38:54;24.63;;;13.90;;
42760;SDS011;31672;47.638;19.026;2023-03-02T19:43:57;22.23;;;12.37;;
42760;SDS011;31672;47.638;19.026;2023-03-02T19:49:02;24.33;;;11.90;;
42760;SDS011;31672;47.638;19.026;2023-03-02T19:54:05;256.50;;;104.80;;
42760;SDS011;31672;47.638;19.026;2023-03-02T19:59:09;675.40;;;251.50;;
42760;SDS011;31672;47.638;19.026;2023-03-02T20:04:12;645.07;;;210.73;;
42760;SDS011;31672;47.638;19.026;2023-03-02T20:09:15;340.63;;;90.80;;
42760;SDS011;31672;47.638;19.026;2023-03-02T20:14:21;225.53;;;72.00;;
42760;SDS011;31672;47.638;19.026;2023-03-02T20:19:35;140.93;;;52.07;;
42760;SDS011;31672;47.638;19.026;2023-03-02T20:24:38;157.37;;;56.37;;
42760;SDS011;31672;47.638;19.026;2023-03-02T20:29:42;100.10;;;41.63;;
42760;SDS011;31672;47.638;19.026;2023-03-02T20:34:45;96.50;;;43.40;;
42760;SDS011;31672;47.638;19.026;2023-03-02T20:39:48;75.63;;;34.53;;
42760;SDS011;31672;47.638;19.026;2023-03-02T20:44:51;86.23;;;36.77;;
42760;SDS011;31672;47.638;19.026;2023-03-02T20:49:57;73.30;;;36.37;;
42760;SDS011;31672;47.638;19.026;2023-03-02T20:55:02;89.27;;;40.67;;
42760;SDS011;31672;47.638;19.026;2023-03-02T21:00:08;79.10;;;36.20;;
42760;SDS011;31672;47.638;19.026;2023-03-02T21:05:18;72.30;;;32.43;;
42760;SDS011;31672;47.638;19.026;2023-03-02T21:10:27;62.67;;;28.40;;
42760;SDS011;31672;47.638;19.026;2023-03-02T21:15:35;38.37;;;19.57;;
42760;SDS011;31672;47.638;19.026;2023-03-02T21:20:38;37.90;;;19.80;;
42760;SDS011;31672;47.638;19.026;2023-03-02T21:25:41;54.90;;;25.27;;
42760;SDS011;31672;47.638;19.026;2023-03-02T21:30:45;47.17;;;22.93;;
42760;SDS011;31672;47.638;19.026;2023-03-02T21:35:49;67.93;;;33.97;;
42760;SDS011;31672;47.638;19.026;2023-03-02T21:40:51;65.97;;;29.37;;
42760;SDS011;31672;47.638;19.026;2023-03-02T21:45:55;88.77;;;38.33;;
42760;SDS011;31672;47.638;19.026;2023-03-02T21:50:58;90.37;;;41.63;;
42760;SDS011;31672;47.638;19.026;2023-03-02T21:56:01;77.77;;;36.70;;
42760;SDS011;31672;47.638;19.026;2023-03-02T22:01:05;55.03;;;24.67;;
42760;SDS011;31672;47.638;19.026;2023-03-02T22:06:10;48.70;;;24.20;;
42760;SDS011;31672;47.638;19.026;2023-03-02T22:11:33;48.50;;;24.57;;
42760;SDS011;31672;47.638;19.026;2023-03-02T22:16:39;42.07;;;20.73;;
42760;SDS011;31672;47.638;19.026;2023-03-02T22:21:46;56.97;;;25.63;;
42760;SDS011;31672;47.638;19.026;2023-03-02T22:32:25;56.00;;;26.13;;
42760;SDS011;31672;47.638;19.026;2023-03-02T22:37:37;47.03;;;21.03;;
42760;SDS011;31672;47.638;19.026;2023-03-02T22:42:40;41.87;;;20.07;;
42760;SDS011;31672;47.638;19.026;2023-03-02T22:47:43;39.80;;;19.87;;
42760;SDS011;31672;47.638;19.026;2023-03-02T22:52:53;47.27;;;22.13;;
42760;SDS011;31672;47.638;19.026;2023-03-02T22:57:59;58.73;;;26.43;;
42760;SDS011;31672;47.638;19.026;2023-03-02T23:08:46;45.23;;;19.90;;
42760;SDS011;31672;47.638;19.026;2023-03-02T23:13:50;42.77;;;21.77;;
42760;SDS011;31672;47.638;19.026;2023-03-02T23:18:55;56.90;;;27.93;;
42760;SDS011;31672;47.638;19.026;2023-03-02T23:24:00;77.37;;;35.23;;
42760;SDS011;31672;47.638;19.026;2023-03-02T23:29:04;75.20;;;33.10;;
42760;SDS011;31672;47.638;19.026;2023-03-02T23:34:08;60.03;;;29.13;;
42760;SDS011;31672;47.638;19.026;2023-03-02T23:39:12;65.73;;;28.40;;
42760;SDS011;31672;47.638;19.026;2023-03-02T23:44:16;57.73;;;28.63;;
42760;SDS011;31672;47.638;19.026;2023-03-02T23:49:20;57.77;;;26.40;;
42760;SDS011;31672;47.638;19.026;2023-03-02T23:54:23;49.80;;;22.57;;
42760;SDS011;31672;47.638;19.026;2023-03-02T23:59:26;37.03;;;18.33;;
